createdAt,value
2018-10-09T00:02:06.962Z,7.53
2018-10-09T00:04:33.880Z,8.00
2018-10-09T00:07:00.795Z,7.60
2018-10-09T00:09:27.745Z,7.80
2018-10-09T00:11:55.267Z,9.40
2018-10-09T00:14:22.552Z,9.57
2018-10-09T00:16:49.492Z,10.80
2018-10-09T00:19:16.456Z,8.73
2018-10-09T00:21:43.399Z,8.80
2018-10-09T00:24:12.972Z,8.50
2018-10-09T00:26:39.925Z,8.73
2018-10-09T00:29:08.361Z,8.00
2018-10-09T00:31:35.367Z,8.10
2018-10-09T00:34:02.339Z,8.33
2018-10-09T00:36:29.333Z,7.50
2018-10-09T00:38:56.307Z,8.40
2018-10-09T00:41:23.265Z,8.30
2018-10-09T00:43:50.241Z,8.27
2018-10-09T00:46:17.197Z,9.03
2018-10-09T00:48:44.129Z,8.37
2018-10-09T00:51:11.140Z,8.60
2018-10-09T00:53:38.242Z,9.20
2018-10-09T00:56:05.281Z,8.57
2018-10-09T00:58:32.188Z,8.37
2018-10-09T01:00:59.162Z,8.60
2018-10-09T01:03:38.866Z,8.57
2018-10-09T01:06:06.002Z,8.50
2018-10-09T01:08:35.381Z,9.20
2018-10-09T01:11:02.357Z,8.53
2018-10-09T01:13:29.262Z,8.77
2018-10-09T01:15:56.297Z,8.83
2018-10-09T01:18:23.231Z,8.83
2018-10-09T01:20:50.156Z,8.73
2018-10-09T01:23:17.100Z,8.43
2018-10-09T01:25:44.017Z,8.80
2018-10-09T01:28:10.916Z,8.40
2018-10-09T01:30:37.912Z,8.20
2018-10-09T01:33:04.987Z,8.80
2018-10-09T01:35:32.096Z,9.17
2018-10-09T01:37:59.119Z,8.60
2018-10-09T01:40:26.130Z,8.40
2018-10-09T01:42:53.076Z,9.30
2018-10-09T01:45:20.049Z,9.00
2018-10-09T01:47:46.968Z,8.90
2018-10-09T01:50:13.968Z,9.00
2018-10-09T01:52:40.916Z,9.50
2018-10-09T01:55:08.016Z,8.20
2018-10-09T01:57:34.938Z,8.90
2018-10-09T02:00:01.918Z,8.40
2018-10-09T02:02:28.937Z,8.77
2018-10-09T02:04:55.863Z,9.20
2018-10-09T02:07:22.802Z,9.27
2018-10-09T02:09:50.635Z,8.77
2018-10-09T02:12:17.575Z,9.63
2018-10-09T02:14:44.505Z,9.47
2018-10-09T02:17:11.502Z,9.27
2018-10-09T02:19:38.414Z,9.33
2018-10-09T02:22:06.040Z,9.37
2018-10-09T02:24:33.072Z,9.17
2018-10-09T02:27:00.154Z,9.10
2018-10-09T02:29:27.063Z,9.27
2018-10-09T02:31:53.992Z,9.40
2018-10-09T02:34:20.944Z,8.90
2018-10-09T02:36:47.910Z,8.90
2018-10-09T02:39:14.794Z,9.20
2018-10-09T02:41:41.679Z,9.33
2018-10-09T02:44:09.222Z,9.47
2018-10-09T02:46:36.103Z,9.83
2018-10-09T02:49:03.024Z,9.90
2018-10-09T02:51:29.936Z,9.60
2018-10-09T02:53:56.873Z,9.77
2018-10-09T02:56:23.789Z,9.10
2018-10-09T02:58:51.007Z,9.60
2018-10-09T03:01:17.932Z,9.67
2018-10-09T03:03:44.882Z,9.40
2018-10-09T03:06:11.811Z,8.60
2018-10-09T03:08:38.795Z,9.87
2018-10-09T03:11:05.919Z,9.47
2018-10-09T03:13:32.807Z,9.23
2018-10-09T03:15:59.757Z,9.20
2018-10-09T03:18:26.679Z,9.13
2018-10-09T03:20:53.640Z,9.50
2018-10-09T03:23:20.577Z,9.43
2018-10-09T03:25:48.100Z,10.07
2018-10-09T03:28:15.066Z,8.87
2018-10-09T03:30:41.968Z,9.30
2018-10-09T03:33:08.878Z,9.83
2018-10-09T03:35:35.812Z,14.13
2018-10-09T03:38:02.895Z,13.10
2018-10-09T03:40:29.810Z,9.70
2018-10-09T03:42:56.700Z,10.73
2018-10-09T03:45:23.676Z,9.90
2018-10-09T03:47:50.651Z,10.50
2018-10-09T03:50:17.595Z,10.40
2018-10-09T03:52:44.566Z,10.40
2018-10-09T03:55:11.525Z,9.93
2018-10-09T03:57:38.476Z,10.70
2018-10-09T04:00:05.457Z,9.63
2018-10-09T04:02:32.421Z,9.67
2018-10-09T04:04:59.329Z,10.10
2018-10-09T04:07:26.371Z,10.60
2018-10-09T04:09:53.274Z,9.80
2018-10-09T04:12:20.205Z,9.37
2018-10-09T04:14:47.164Z,10.73
2018-10-09T04:17:14.182Z,10.43
2018-10-09T04:19:41.092Z,10.20
2018-10-09T04:22:08.359Z,10.10
2018-10-09T04:24:35.291Z,11.07
2018-10-09T04:27:02.310Z,10.70
2018-10-09T04:29:29.425Z,10.90
2018-10-09T04:31:56.280Z,11.97
2018-10-09T04:34:23.198Z,12.20
2018-10-09T04:36:50.123Z,12.03
2018-10-09T04:39:17.090Z,12.70
2018-10-09T04:41:43.978Z,12.30
2018-10-09T04:44:11.111Z,12.87
2018-10-09T04:46:38.019Z,12.37
2018-10-09T04:49:05.027Z,12.63
2018-10-09T04:51:32.159Z,13.10
2018-10-09T04:53:59.045Z,12.83
2018-10-09T04:56:26.008Z,12.33
2018-10-09T04:58:53.005Z,11.90
2018-10-09T05:01:20.554Z,12.47
2018-10-09T05:03:48.078Z,11.87
2018-10-09T05:06:15.020Z,11.53
2018-10-09T05:08:41.951Z,12.30
2018-10-09T05:11:08.884Z,12.37
2018-10-09T05:13:35.830Z,16.53
2018-10-09T05:16:02.796Z,13.40
2018-10-09T05:18:31.063Z,12.23
2018-10-09T05:20:58.472Z,11.00
2018-10-09T05:23:25.415Z,12.30
2018-10-09T05:25:52.454Z,11.93
2018-10-09T05:28:21.538Z,12.13
2018-10-09T05:30:48.511Z,13.17
2018-10-09T05:33:16.597Z,13.17
2018-10-09T05:35:43.515Z,12.67
2018-10-09T05:38:10.602Z,12.30
2018-10-09T05:40:37.603Z,12.97
2018-10-09T05:43:04.611Z,13.33
2018-10-09T05:45:36.157Z,14.30
2018-10-09T05:48:03.206Z,14.30
2018-10-09T05:50:30.163Z,13.90
2018-10-09T05:57:55.356Z,15.07
2018-10-09T06:00:22.270Z,14.53
2018-10-09T06:02:49.320Z,16.33
2018-10-09T06:05:16.265Z,15.93
2018-10-09T06:07:43.222Z,16.90
2018-10-09T06:10:10.254Z,15.70
2018-10-09T06:12:37.204Z,16.03
2018-10-09T06:15:04.597Z,15.37
2018-10-09T06:17:31.553Z,15.17
2018-10-09T06:19:58.481Z,16.57
2018-10-09T06:22:25.431Z,16.37
2018-10-09T06:24:52.374Z,16.80
2018-10-09T06:27:19.696Z,16.30
2018-10-09T06:29:46.651Z,16.07
2018-10-09T06:32:13.600Z,16.53
2018-10-09T06:34:40.515Z,17.20
2018-10-09T06:37:07.739Z,16.87
2018-10-09T06:39:34.704Z,18.23
2018-10-09T06:42:01.667Z,16.87
2018-10-09T06:44:28.612Z,17.90
2018-10-09T06:46:55.572Z,17.43
2018-10-09T06:49:22.604Z,17.37
2018-10-09T06:51:49.554Z,20.50
2018-10-09T06:54:16.513Z,17.60
2018-10-09T06:56:43.514Z,18.37
2018-10-09T06:59:10.467Z,18.17
2018-10-09T07:01:38.491Z,18.87
2018-10-09T07:04:06.673Z,18.17
2018-10-09T07:06:33.677Z,17.93
2018-10-09T07:09:00.635Z,18.53
2018-10-09T07:11:27.654Z,18.87
2018-10-09T07:13:54.571Z,19.77
2018-10-09T07:16:22.223Z,19.07
2018-10-09T07:18:50.191Z,20.67
2018-10-09T07:21:17.169Z,19.73
2018-10-09T07:23:44.172Z,19.80
2018-10-09T07:26:11.224Z,20.93
2018-10-09T07:28:38.288Z,21.43
2018-10-09T07:31:05.240Z,21.60
2018-10-09T07:33:32.313Z,20.67
2018-10-09T07:36:01.621Z,21.03
2018-10-09T07:38:28.675Z,21.93
2018-10-09T07:40:55.626Z,21.53
2018-10-09T07:43:22.623Z,22.37
2018-10-09T07:45:49.601Z,22.80
2018-10-09T07:48:16.662Z,22.87
2018-10-09T07:50:43.751Z,22.53
2018-10-09T07:53:10.707Z,23.57
2018-10-09T07:55:37.674Z,22.00
2018-10-09T07:58:04.621Z,23.00
2018-10-09T08:00:31.671Z,22.47
2018-10-09T08:02:58.579Z,23.60
2018-10-09T08:05:26.457Z,23.30
2018-10-09T08:07:53.412Z,21.57
2018-10-09T08:10:20.383Z,22.83
2018-10-09T08:12:47.291Z,23.40
2018-10-09T08:15:14.220Z,22.50
2018-10-09T08:17:41.236Z,22.67
2018-10-09T08:20:08.187Z,21.40
2018-10-09T08:22:35.157Z,22.03
2018-10-09T08:25:02.118Z,23.13
2018-10-09T08:27:29.090Z,23.20
2018-10-09T08:29:58.593Z,21.93
2018-10-09T08:32:25.546Z,22.73
2018-10-09T08:34:52.443Z,23.20
2018-10-09T08:37:20.389Z,22.10
2018-10-09T08:39:47.285Z,22.20
2018-10-09T08:42:14.176Z,22.63
2018-10-09T08:44:41.151Z,22.30
2018-10-09T08:47:08.077Z,22.33
2018-10-09T08:49:34.992Z,21.73
2018-10-09T08:52:02.132Z,22.43
2018-10-09T08:54:29.011Z,23.10
2018-10-09T08:56:55.961Z,21.57
2018-10-09T08:59:22.982Z,21.23
2018-10-09T09:01:49.913Z,22.07
2018-10-09T09:04:16.840Z,22.37
2018-10-09T09:06:43.809Z,21.57
2018-10-09T09:09:11.520Z,22.50
2018-10-09T09:11:38.646Z,22.23
2018-10-09T09:14:06.460Z,21.10
2018-10-09T09:16:33.428Z,21.53
2018-10-09T09:19:03.577Z,21.27
2018-10-09T09:21:30.988Z,20.87
2018-10-09T09:23:57.955Z,21.03
2018-10-09T09:26:24.943Z,21.07
2018-10-09T09:28:51.963Z,21.77
2018-10-09T09:31:18.939Z,21.33
2018-10-09T09:33:45.919Z,18.17
2018-10-09T09:36:13.570Z,20.80
2018-10-09T09:38:40.515Z,19.90
2018-10-09T09:41:07.693Z,20.23
2018-10-09T09:43:34.693Z,18.57
2018-10-09T09:46:01.816Z,19.73
2018-10-09T09:48:28.715Z,18.90
2018-10-09T09:50:55.759Z,17.25
2018-10-09T09:53:22.759Z,17.27
2018-10-09T09:55:49.693Z,18.10
2018-10-09T09:58:16.693Z,17.77
2018-10-09T10:00:49.307Z,18.13
2018-10-09T10:03:16.839Z,18.23
2018-10-09T10:05:43.807Z,17.70
2018-10-09T10:08:11.727Z,16.97
2018-10-09T10:10:38.736Z,17.30
2018-10-09T10:13:05.813Z,17.50
2018-10-09T10:15:32.830Z,17.53
2018-10-09T10:17:59.753Z,16.47
2018-10-09T10:20:26.733Z,17.17
2018-10-09T10:22:53.727Z,16.32
2018-10-09T10:25:20.659Z,14.75
2018-10-09T10:27:47.646Z,16.40
2018-10-09T10:30:14.621Z,14.65
2018-10-09T10:32:41.570Z,14.70
2018-10-09T10:35:09.024Z,13.45
2018-10-09T10:37:35.975Z,14.27
2018-10-09T10:40:02.980Z,15.33
2018-10-09T10:42:29.927Z,15.67
2018-10-09T10:44:57.430Z,13.08
2018-10-09T10:47:24.420Z,12.85
2018-10-09T10:49:51.356Z,12.50
2018-10-09T10:52:18.375Z,12.70
2018-10-09T10:54:45.312Z,12.77
2018-10-09T10:57:12.328Z,12.88
2018-10-09T10:59:39.293Z,13.93
2018-10-09T11:02:06.777Z,13.32
2018-10-09T11:04:33.789Z,12.98
2018-10-09T11:07:00.795Z,13.50
2018-10-09T11:09:27.811Z,11.28
2018-10-09T11:11:54.831Z,11.60
2018-10-09T11:14:21.791Z,11.10
2018-10-09T11:16:48.860Z,10.32
2018-10-09T11:19:15.833Z,9.78
2018-10-09T11:21:42.949Z,9.50
2018-10-09T11:24:09.762Z,10.28
2018-10-09T11:26:36.765Z,9.08
2018-10-09T11:29:03.703Z,9.35
2018-10-09T11:31:30.672Z,9.38
2018-10-09T11:33:58.624Z,8.98
2018-10-09T11:36:25.654Z,8.63
2018-10-09T11:38:52.558Z,8.98
2018-10-09T11:41:19.573Z,8.65
2018-10-09T11:43:46.518Z,9.15
2018-10-09T11:46:13.478Z,7.53
2018-10-09T11:48:40.423Z,8.60
2018-10-09T11:51:07.445Z,9.23
2018-10-09T11:53:34.414Z,8.80
2018-10-09T11:56:01.383Z,8.45
2018-10-09T11:58:28.332Z,7.92
2018-10-09T12:00:57.578Z,8.30
2018-10-09T12:03:24.578Z,7.78
2018-10-09T12:05:51.674Z,9.08
2018-10-09T12:08:18.489Z,8.55
2018-10-09T12:10:45.489Z,8.38
2018-10-09T12:13:12.459Z,9.15
2018-10-09T12:15:39.428Z,8.05
2018-10-09T12:18:06.601Z,8.50
2018-10-09T12:20:33.511Z,8.20
2018-10-09T12:23:00.463Z,7.97
2018-10-09T12:25:27.433Z,7.40
2018-10-09T12:27:54.380Z,7.20
2018-10-09T12:30:21.318Z,7.85
2018-10-09T12:32:48.296Z,8.78
2018-10-09T12:35:15.758Z,8.50
2018-10-09T12:37:42.896Z,7.95
2018-10-09T12:40:09.845Z,7.58
2018-10-09T12:42:36.824Z,7.67
2018-10-09T12:45:03.800Z,7.62
2018-10-09T12:47:30.715Z,8.20
2018-10-09T12:49:58.266Z,7.78
2018-10-09T12:52:25.214Z,7.25
2018-10-09T12:54:52.151Z,7.83
2018-10-09T12:57:19.091Z,8.93
2018-10-09T12:59:46.047Z,8.38
2018-10-09T13:02:13.175Z,7.42
2018-10-09T13:04:41.557Z,7.87
2018-10-09T13:07:08.508Z,8.03
2018-10-09T13:09:35.510Z,7.67
2018-10-09T13:12:02.473Z,7.40
2018-10-09T13:14:29.424Z,8.25
2018-10-09T13:16:56.507Z,9.25
2018-10-09T13:19:23.456Z,7.97
2018-10-09T13:21:50.949Z,9.28
2018-10-09T13:24:17.434Z,9.53
2018-10-09T13:26:44.392Z,10.13
2018-10-09T13:29:11.390Z,8.80
2018-10-09T13:31:38.286Z,8.63
2018-10-09T13:34:05.468Z,8.68
2018-10-09T13:36:32.422Z,8.08
2018-10-09T13:38:59.860Z,8.63
2018-10-09T13:41:26.838Z,8.05
2018-10-09T13:43:53.841Z,8.60
2018-10-09T13:46:20.776Z,8.30
2018-10-09T13:48:47.792Z,7.55
2018-10-09T13:51:15.059Z,7.25
2018-10-09T13:53:42.034Z,7.67
2018-10-09T13:56:09.037Z,7.12
2018-10-09T13:58:36.021Z,7.35
2018-10-09T14:01:02.989Z,7.08
2018-10-09T14:03:30.060Z,7.12
2018-10-09T14:05:57.044Z,6.80
2018-10-09T14:08:24.106Z,7.53
2018-10-09T14:10:51.055Z,6.90
2018-10-09T14:13:18.240Z,7.60
2018-10-09T14:15:45.248Z,6.75
2018-10-09T14:18:12.240Z,6.80
2018-10-09T14:20:39.328Z,8.13
2018-10-09T14:23:06.464Z,7.42
2018-10-09T14:25:33.370Z,7.92
2018-10-09T14:28:00.327Z,8.25
2018-10-09T14:30:27.370Z,7.55
2018-10-09T14:32:54.353Z,7.10
2018-10-09T14:35:21.328Z,7.83
2018-10-09T14:37:48.446Z,9.13
2018-10-09T14:40:15.456Z,8.48
2018-10-09T14:42:43.373Z,8.23
2018-10-09T14:45:10.301Z,8.25
2018-10-09T14:47:37.245Z,7.87
2018-10-09T14:50:04.273Z,7.35
2018-10-09T14:52:31.205Z,7.60
2018-10-09T14:54:58.273Z,8.00
2018-10-09T14:57:25.329Z,7.30
2018-10-09T14:59:52.397Z,7.20
2018-10-09T15:02:19.386Z,8.00
2018-10-09T15:04:46.340Z,8.10
2018-10-09T15:07:13.302Z,7.78
2018-10-09T15:09:40.292Z,8.45
2018-10-09T15:12:07.328Z,6.78
2018-10-09T15:14:34.270Z,7.55
2018-10-09T15:17:01.312Z,8.10
2018-10-09T15:19:28.235Z,8.58
2018-10-09T15:21:55.190Z,8.30
2018-10-09T15:24:22.192Z,10.50
2018-10-09T15:26:49.372Z,8.18
2018-10-09T15:29:16.980Z,9.60
2018-10-09T15:31:44.844Z,7.87
2018-10-09T15:34:11.830Z,9.13
2018-10-09T15:36:38.835Z,9.13
2018-10-09T15:39:08.344Z,8.83
2018-10-09T15:41:35.344Z,7.65
2018-10-09T15:44:02.268Z,8.98
2018-10-09T15:46:29.192Z,8.38
2018-10-09T15:48:56.115Z,7.78
2018-10-09T15:51:23.057Z,9.00
2018-10-09T15:53:50.241Z,8.05
2018-10-09T15:56:17.271Z,8.25
2018-10-09T15:58:44.272Z,7.42
2018-10-09T16:01:11.349Z,8.20
2018-10-09T16:03:38.314Z,8.08
2018-10-09T16:06:05.271Z,8.05
2018-10-09T16:08:32.179Z,7.78
2018-10-09T16:10:59.115Z,7.58
2018-10-09T16:13:27.059Z,8.73
2018-10-09T16:15:54.035Z,7.75
2018-10-09T16:18:20.963Z,8.08
2018-10-09T16:20:48.015Z,8.10
2018-10-09T16:23:14.959Z,8.58
2018-10-09T16:25:41.927Z,9.00
2018-10-09T16:28:08.963Z,8.28
2018-10-09T16:30:36.499Z,8.28
2018-10-09T16:33:03.456Z,8.58
2018-10-09T16:35:30.405Z,9.33
2018-10-09T16:37:57.399Z,8.38
2018-10-09T16:40:24.371Z,9.28
2018-10-09T16:42:51.403Z,9.35
2018-10-09T16:45:18.408Z,9.48
2018-10-09T16:47:45.418Z,9.55
2018-10-09T16:50:12.387Z,9.10
2018-10-09T16:52:39.377Z,10.08
2018-10-09T16:55:06.367Z,9.38
2018-10-09T16:57:33.313Z,9.98
2018-10-09T17:00:00.224Z,10.10
2018-10-09T17:02:27.267Z,11.18
2018-10-09T17:04:54.203Z,10.70
2018-10-09T17:07:21.161Z,9.85
2018-10-09T17:09:48.127Z,10.80
2018-10-09T17:12:15.080Z,10.82
2018-10-09T17:14:42.035Z,11.37
2018-10-09T17:17:09.533Z,10.45
2018-10-09T17:19:36.487Z,10.55
2018-10-09T17:22:03.389Z,10.98
2018-10-09T17:24:30.290Z,11.45
2018-10-09T17:26:57.290Z,11.55
2018-10-09T17:29:24.146Z,11.48
2018-10-09T17:31:51.052Z,11.93
2018-10-09T17:34:18.017Z,10.75
2018-10-09T17:36:44.953Z,11.60
2018-10-09T17:39:12.324Z,10.63
2018-10-09T17:41:39.300Z,11.55
2018-10-09T17:44:06.379Z,11.27
2018-10-09T17:46:33.476Z,12.33
2018-10-09T17:49:00.248Z,11.50
2018-10-09T17:51:27.173Z,11.77
2018-10-09T17:53:54.135Z,12.90
2018-10-09T17:56:21.419Z,12.20
2018-10-09T17:58:48.329Z,11.65
2018-10-09T18:01:15.281Z,12.00
2018-10-09T18:03:42.262Z,11.87
2018-10-09T18:06:09.905Z,11.57
2018-10-09T18:08:36.914Z,12.03
2018-10-09T18:11:03.879Z,10.93
2018-10-09T18:13:30.808Z,11.87
2018-10-09T18:15:57.767Z,14.57
2018-10-09T18:18:24.672Z,13.70
2018-10-09T18:20:51.606Z,14.25
2018-10-09T18:23:18.573Z,13.55
2018-10-09T18:25:45.542Z,13.60
2018-10-09T18:28:12.456Z,13.30
2018-10-09T18:30:39.391Z,13.80
2018-10-09T18:33:06.647Z,13.43
2018-10-09T18:35:33.406Z,14.20
2018-10-09T18:38:00.285Z,13.70
2018-10-09T18:40:27.242Z,14.23
2018-10-09T18:42:54.162Z,14.73
2018-10-09T18:45:21.113Z,15.00
2018-10-09T18:47:48.151Z,16.00
2018-10-09T18:50:15.068Z,16.67
2018-10-09T18:52:42.506Z,16.60
2018-10-09T18:55:11.227Z,16.10
2018-10-09T18:57:38.165Z,15.32
2018-10-09T19:00:05.929Z,15.95
2018-10-09T19:02:32.914Z,15.67
2018-10-09T19:04:59.876Z,16.93
2018-10-09T19:07:26.827Z,16.82
2018-10-09T19:09:53.785Z,15.17
2018-10-09T19:12:20.732Z,16.52
2018-10-09T19:14:47.705Z,16.43
2018-10-09T19:17:14.645Z,15.67
2018-10-09T19:19:41.599Z,15.50
2018-10-09T19:22:08.673Z,15.57
2018-10-09T19:24:35.631Z,16.50
2018-10-09T19:27:02.633Z,17.17
2018-10-09T19:29:29.636Z,17.00
2018-10-09T19:31:56.628Z,18.57
2018-10-09T19:34:23.607Z,17.33
2018-10-09T19:36:50.541Z,18.27
2018-10-09T19:39:17.963Z,18.43
2018-10-09T19:41:44.911Z,18.60
2018-10-09T19:44:11.884Z,19.00
2018-10-09T19:46:39.190Z,19.93
2018-10-09T19:52:07.440Z,17.70
2018-10-09T19:54:34.399Z,19.03
2018-10-09T19:57:01.340Z,18.47
2018-10-09T19:59:28.409Z,17.00
2018-10-09T20:01:55.678Z,18.70
2018-10-09T20:04:22.768Z,18.57
2018-10-09T20:06:49.813Z,19.40
2018-10-09T20:09:16.782Z,19.77
2018-10-09T20:11:43.792Z,18.77
2018-10-09T20:14:13.026Z,20.13
2018-10-09T20:16:40.078Z,20.00
2018-10-09T20:19:07.874Z,18.70
2018-10-09T20:21:34.910Z,19.77
2018-10-09T20:24:01.963Z,20.97
2018-10-09T20:26:28.965Z,20.27
2018-10-09T20:28:55.875Z,19.17
2018-10-09T20:31:25.686Z,20.27
2018-10-09T20:33:56.074Z,20.53
2018-10-09T20:36:23.024Z,19.03
2018-10-09T20:38:50.090Z,19.97
2018-10-09T20:41:17.243Z,20.10
2018-10-09T20:43:44.194Z,20.20
2018-10-09T20:46:11.661Z,19.97
2018-10-09T20:48:38.670Z,19.20
2018-10-09T20:51:05.664Z,19.93
2018-10-09T20:53:32.585Z,20.23
2018-10-09T20:55:59.870Z,20.33
2018-10-09T20:58:27.176Z,20.27
2018-10-09T21:00:55.295Z,19.98
2018-10-09T21:03:22.269Z,22.23
2018-10-09T21:05:49.656Z,22.07
2018-10-09T21:08:16.537Z,21.27
2018-10-09T21:10:44.263Z,21.03
2018-10-09T21:13:11.212Z,21.17
2018-10-09T21:15:39.062Z,23.20
2018-10-09T21:18:06.261Z,23.33
2018-10-09T21:20:33.207Z,23.27
2018-10-09T21:23:00.167Z,23.10
2018-10-09T21:25:27.135Z,22.90
2018-10-09T21:27:54.107Z,23.55
2018-10-09T21:30:21.104Z,23.65
2018-10-09T21:32:48.027Z,23.33
2018-10-09T21:35:15.230Z,22.53
2018-10-09T21:37:42.434Z,23.13
2018-10-09T21:40:09.362Z,24.13
2018-10-09T21:42:36.272Z,22.80
2018-10-09T21:45:03.346Z,24.10
2018-10-09T21:47:30.288Z,23.47
2018-10-09T21:49:57.229Z,24.10
2018-10-09T21:52:24.125Z,22.80
2018-10-09T21:54:51.340Z,23.80
2018-10-09T21:57:18.339Z,23.83
2018-10-09T21:59:45.297Z,22.67
2018-10-09T22:02:12.252Z,23.52
2018-10-09T22:04:39.188Z,24.73
2018-10-09T22:07:06.130Z,24.73
2018-10-09T22:14:24.696Z,23.83
2018-10-09T22:16:51.655Z,25.40
2018-10-09T22:19:18.548Z,25.60
2018-10-09T22:21:45.501Z,23.83
2018-10-09T22:24:12.424Z,23.93
2018-10-09T22:26:39.354Z,24.30
2018-10-09T22:29:06.295Z,22.97
2018-10-09T22:31:33.209Z,23.47
2018-10-09T22:34:00.201Z,24.17
2018-10-09T22:36:27.091Z,25.13
2018-10-09T22:38:54.047Z,22.97
2018-10-09T22:41:20.931Z,24.07
2018-10-09T22:43:47.879Z,23.67
2018-10-09T22:46:14.771Z,22.70
2018-10-09T22:48:41.668Z,23.87
2018-10-09T22:51:08.572Z,24.10
2018-10-09T22:53:35.535Z,23.80
2018-10-09T22:56:02.444Z,24.50
2018-10-09T22:58:29.352Z,25.40
2018-10-09T23:00:56.286Z,23.87
2018-10-09T23:03:23.164Z,23.60
2018-10-09T23:05:50.050Z,24.00
2018-10-09T23:08:16.914Z,24.17
2018-10-09T23:10:43.830Z,22.67
2018-10-09T23:13:10.747Z,23.33
2018-10-09T23:15:37.633Z,23.60
2018-10-09T23:18:04.668Z,22.33
2018-10-09T23:20:31.763Z,23.57
2018-10-09T23:22:58.690Z,24.37
2018-10-09T23:25:25.623Z,23.97
2018-10-09T23:27:52.538Z,24.00
2018-10-09T23:30:19.431Z,23.97
2018-10-09T23:32:46.337Z,23.13
2018-10-09T23:35:13.221Z,24.20
2018-10-09T23:37:40.089Z,23.23
2018-10-09T23:40:07.038Z,24.10
2018-10-09T23:42:33.999Z,23.83
2018-10-09T23:45:00.849Z,23.53
2018-10-09T23:47:27.757Z,23.00
2018-10-09T23:49:54.631Z,23.53
2018-10-09T23:52:21.542Z,23.27
2018-10-09T23:54:48.472Z,22.37
2018-10-09T23:57:15.428Z,23.77
2018-10-09T23:59:42.334Z,23.20
